Weather History for Tehachapi, CA

Change the Weather History Date:

Tuesday, November 27, 2012

  Actual Average Record
Temperature  
Mean Temperature 54 °F -  
Max Temperature 64 °F 54 °F 73 °F (2014)
Min Temperature 44 °F 30 °F 35 °F (2011)
Degree Days  
Heating Degree Days 11    
Growing Degree Days 4 (Base 50)    
Moisture  
Dew Point 23 °F    
Average Humidity 31    
Maximum Humidity 40    
Minimum Humidity 21    
Precipitation  
Precipitation 0.00 in - - ()
Sea Level Pressure  
Sea Level Pressure 30.17 in    
Wind  
Wind Speed 10 mph (SE)    
Max Wind Speed 16 mph    
Max Gust Speed 25 mph    
Visibility 10 miles    
Events      
Averages and records for this station are not official NWS values.
T = Trace of Precipitation, MM = Missing Value Source: NWS Daily Summary

Daily Weather History Graph

Daily Weather History Graph

Search for Another Location

Airport:

Trip Planner

Search our weather history database for the weather conditions in past years. The results will help you decide how hot, cold, wet, or windy it might be!

Date:

Astronomy

Nov. 27, 2012 Rise Set
Actual Time 6:40 AM PST 4:42 PM PST
Civil Twilight 6:12 AM PST 5:10 PM PST
Nautical Twilight 5:41 AM PST 5:41 PM PST
Astronomical Twilight 5:11 AM PST 6:11 PM PST
Moon 4:16 PM PST 5:50 AM PST
Length of Visible Light 10h 57m
Length of Day
10h 01m
Waxing Gibbous, 99% of the Moon is Illuminated
Nov 27
Waxing Gibbous
Nov 28
Full
Dec 6
Last Quarter
Dec 13
New
Dec 19
First Quarter

Hourly Weather History & Observations

Time (PST) Temp. Windchill Dew Point Humidity Pressure Visibility Wind Dir Wind Speed Gust Speed Precip Events Conditions
12:15 AM 44.6 °F 39.7 °F 19.4 °F 37% 30.18 in 10.0 mi SE 9.2 mph - N/A   Clear
12:35 AM 44.6 °F 39.2 °F 19.4 °F 37% 30.17 in 10.0 mi SE 10.4 mph - N/A   Clear
12:55 AM 46.4 °F 40.4 °F 19.4 °F 34% 30.17 in 10.0 mi SE 13.8 mph - N/A   Clear
1:15 AM 48.2 °F - 19.4 °F 32% 30.17 in 10.0 mi SSE 6.9 mph - N/A   Clear
1:35 AM 46.4 °F 42.9 °F 19.4 °F 34% 30.17 in 10.0 mi SSE 6.9 mph - N/A   Clear
1:55 AM 46.4 °F 41.5 °F 21.2 °F 37% 30.17 in 10.0 mi SE 10.4 mph - N/A   Clear
2:15 AM 48.2 °F - 21.2 °F 34% 30.16 in 10.0 mi SE 11.5 mph - N/A   Clear
2:35 AM 48.2 °F - 21.2 °F 34% 30.16 in 10.0 mi SE 11.5 mph - N/A   Clear
2:55 AM 48.2 °F - 21.2 °F 34% 30.16 in 10.0 mi SSE 11.5 mph - N/A   Clear
3:15 AM 50.0 °F - 21.2 °F 32% 30.15 in 10.0 mi SSE 11.5 mph - N/A   Clear
3:35 AM 50.0 °F - 21.2 °F 32% 30.15 in 10.0 mi SSE 10.4 mph - N/A   Clear
3:55 AM 50.0 °F - 21.2 °F 32% 30.15 in 10.0 mi SE 10.4 mph - N/A   Clear
4:15 AM 50.0 °F - 19.4 °F 30% 30.15 in 10.0 mi SSE 9.2 mph - N/A   Clear
4:35 AM 48.2 °F - 21.2 °F 34% 30.15 in 10.0 mi SSE 9.2 mph - N/A   Clear
4:55 AM 48.2 °F - 19.4 °F 32% 30.16 in 10.0 mi SE 12.7 mph - N/A   Clear
5:15 AM 48.2 °F - 19.4 °F 32% 30.17 in 10.0 mi SE 11.5 mph - N/A   Clear
5:35 AM 48.2 °F - 21.2 °F 34% 30.17 in 10.0 mi SSE 8.1 mph - N/A   Clear
5:55 AM 48.2 °F - 23.0 °F 37% 30.18 in 10.0 mi SE 8.1 mph - N/A   Clear
6:15 AM 46.4 °F 42.9 °F 23.0 °F 40% 30.18 in 10.0 mi East 6.9 mph - N/A   Clear
6:35 AM 46.4 °F 42.4 °F 23.0 °F 40% 30.19 in 10.0 mi East 8.1 mph - N/A   Clear
6:55 AM 48.2 °F - 23.0 °F 37% 30.20 in 10.0 mi ESE 6.9 mph - N/A   Clear
7:15 AM 48.2 °F - 23.0 °F 37% 30.20 in 10.0 mi SE 9.2 mph - N/A   Clear
7:35 AM 48.2 °F - 23.0 °F 37% 30.21 in 10.0 mi ESE 8.1 mph - N/A   Clear
7:55 AM 50.0 °F - 23.0 °F 35% 30.22 in 10.0 mi SE 6.9 mph - N/A   Clear
8:35 AM 55.4 °F - 23.0 °F 29% 30.22 in 10.0 mi SE 8.1 mph - N/A   Clear
9:15 AM 57.2 °F - 23.0 °F 27% 30.23 in 10.0 mi SE 9.2 mph - N/A   Clear
9:35 AM 59.0 °F - 24.8 °F 27% 30.23 in 10.0 mi ESE 11.5 mph - N/A   Clear
9:55 AM 59.0 °F - 24.8 °F 27% 30.23 in 10.0 mi East 12.7 mph 17.3 mph N/A   Clear
10:15 AM 59.0 °F - 24.8 °F 27% 30.22 in 10.0 mi East 13.8 mph 21.9 mph N/A   Clear
10:35 AM 60.8 °F - 23.0 °F 23% 30.22 in 10.0 mi ESE 12.7 mph 20.7 mph N/A   Clear
10:55 AM 60.8 °F - 23.0 °F 23% 30.21 in 10.0 mi ESE 16.1 mph 23.0 mph N/A   Clear
11:15 AM 60.8 °F - 23.0 °F 23% 30.20 in 10.0 mi East 11.5 mph 18.4 mph N/A   Clear
11:35 AM 64.4 °F - 23.0 °F 21% 30.18 in 10.0 mi East 16.1 mph 24.2 mph N/A   Clear
11:55 AM 64.4 °F - 23.0 °F 21% 30.18 in 10.0 mi ESE 13.8 mph 25.3 mph N/A   Clear
12:15 PM 64.4 °F - 23.0 °F 21% 30.17 in 10.0 mi SE 15.0 mph 18.4 mph N/A   Clear
12:35 PM 64.4 °F - 23.0 °F 21% 30.16 in 8.0 mi ESE 13.8 mph 19.6 mph N/A   Clear
12:55 PM 64.4 °F - 23.0 °F 21% 30.15 in 10.0 mi SE 11.5 mph 21.9 mph N/A   Clear
1:15 PM 64.4 °F - 23.0 °F 21% 30.15 in 10.0 mi ESE 13.8 mph - N/A   Clear
1:35 PM 64.4 °F - 23.0 °F 21% 30.14 in 10.0 mi ESE 13.8 mph 18.4 mph N/A   Clear
1:55 PM 62.6 °F - 23.0 °F 22% 30.14 in 10.0 mi ESE 10.4 mph - N/A   Clear
2:15 PM 62.6 °F - 23.0 °F 22% 30.14 in 10.0 mi ESE 15.0 mph - N/A   Clear
2:55 PM 62.6 °F - 23.0 °F 22% 30.13 in 10.0 mi ESE 10.4 mph - N/A   Clear
3:15 PM 62.6 °F - 23.0 °F 22% 30.14 in 10.0 mi ESE 11.5 mph - N/A   Clear
3:35 PM 62.6 °F - 23.0 °F 22% 30.14 in 10.0 mi SE 12.7 mph - N/A   Clear
3:55 PM 60.8 °F - 23.0 °F 23% 30.14 in 10.0 mi ESE 10.4 mph - N/A   Clear
4:15 PM 59.0 °F - 23.0 °F 25% 30.14 in 10.0 mi ESE 8.1 mph - N/A   Clear
4:35 PM 55.4 °F - 23.0 °F 29% 30.14 in 10.0 mi SE 8.1 mph - N/A   Clear
4:55 PM - - - N/A% 30.13 in - ESE 8.1 mph - N/A   Unknown
5:15 PM - - - N/A% - - North - - N/A   Unknown
5:35 PM 51.8 °F - 23.0 °F 33% 30.15 in 10.0 mi ESE 6.9 mph - N/A   Unknown
5:55 PM 51.8 °F - 23.0 °F 33% 30.15 in 10.0 mi SE 9.2 mph - N/A   Clear
6:15 PM 51.8 °F - 23.0 °F 33% 30.15 in 10.0 mi SSE 6.9 mph - N/A   Clear
6:35 PM 50.0 °F - 23.0 °F 35% 30.15 in 10.0 mi ESE 8.1 mph - N/A   Clear
6:55 PM 50.0 °F - 23.0 °F 35% 30.15 in 10.0 mi SE 8.1 mph - N/A   Clear
7:15 PM 50.0 °F - 23.0 °F 35% 30.15 in 10.0 mi SE 8.1 mph - N/A   Clear
7:35 PM 50.0 °F - 24.8 °F 37% 30.16 in 10.0 mi SE 8.1 mph - N/A   Clear
7:55 PM 53.6 °F - 24.8 °F 33% 30.16 in 10.0 mi ESE 6.9 mph - N/A   Mostly Cloudy
8:15 PM 51.8 °F - 24.8 °F 35% 30.16 in 10.0 mi SE 8.1 mph - N/A   Overcast
8:35 PM 50.0 °F - 24.8 °F 37% 30.16 in 10.0 mi ESE 8.1 mph - N/A   Overcast
8:55 PM 51.8 °F - 24.8 °F 35% 30.17 in 10.0 mi SE 6.9 mph - N/A   Overcast
9:15 PM 50.0 °F - 24.8 °F 37% 30.16 in 10.0 mi SE 6.9 mph - N/A   Overcast
9:35 PM 50.0 °F - 24.8 °F 37% 30.17 in 10.0 mi SSE 8.1 mph - N/A   Overcast
9:55 PM 51.8 °F - 24.8 °F 35% 30.16 in 10.0 mi SSE 6.9 mph - N/A   Overcast
10:15 PM 51.8 °F - 24.8 °F 35% 30.16 in 10.0 mi SSE 9.2 mph - N/A   Overcast
10:35 PM 48.2 °F - 24.8 °F 40% 30.17 in 10.0 mi SSE 6.9 mph - N/A   Overcast
10:55 PM 46.4 °F 42.4 °F 23.0 °F 40% 30.17 in 10.0 mi ESE 8.1 mph - N/A   Overcast
11:15 PM 48.2 °F - 24.8 °F 40% 30.17 in 10.0 mi SE 8.1 mph - N/A   Overcast
11:35 PM 48.2 °F - 24.8 °F 40% 30.17 in 10.0 mi ESE 10.4 mph - N/A   Overcast
11:55 PM 53.6 °F - 24.8 °F 33% 30.17 in 10.0 mi East 9.2 mph - N/A   Overcast